Terminal Aerodrome Forecast
Issued by NWS Grand Forks, ND

Home | Current Version | Previous Version | Text Only | Print | Product List | Glossary Off
Versions: 1 2 3 4 5 6 7 8 9 10 11 12 13 14 15 16 17 18

905
FTUS43 KFGF 221721
TAFGFK
TAF
KGFK 221721Z 2218/2318 04012KT P6SM SCT250
     FM230000 05008KT P6SM BKN200
     FM231400 08010KT P6SM OVC090=

USA.gov is the U.S. government's official web portal to all federal, state and local government web resources and services.